sensor_id;sensor_type;location;lat;lon;timestamp;pressure;altitude;pressure_sealevel;temperature;humidity
8140;BME280;4111;50.972;7.072;2023-04-03T00:01:44;102415.63;;;4.20;81.62
8140;BME280;4111;50.972;7.072;2023-04-03T00:04:11;102413.94;;;4.18;81.94
8140;BME280;4111;50.972;7.072;2023-04-03T00:06:37;102417.94;;;4.06;82.18
8140;BME280;4111;50.972;7.072;2023-04-03T00:09:04;102414.84;;;3.93;82.83
8140;BME280;4111;50.972;7.072;2023-04-03T00:11:30;102410.88;;;4.05;82.90
8140;BME280;4111;50.972;7.072;2023-04-03T00:13:56;102412.22;;;4.01;83.10
8140;BME280;4111;50.972;7.072;2023-04-03T00:16:23;102412.88;;;3.95;82.66
8140;BME280;4111;50.972;7.072;2023-04-03T00:18:49;102414.22;;;3.99;82.60
8140;BME280;4111;50.972;7.072;2023-04-03T00:21:16;102409.81;;;3.90;83.11
8140;BME280;4111;50.972;7.072;2023-04-03T00:23:42;102412.81;;;3.87;82.67
8140;BME280;4111;50.972;7.072;2023-04-03T00:26:09;102409.97;;;3.88;82.77
8140;BME280;4111;50.972;7.072;2023-04-03T00:28:35;102414.13;;;3.83;83.00
8140;BME280;4111;50.972;7.072;2023-04-03T00:31:02;102416.03;;;3.56;83.53
8140;BME280;4111;50.972;7.072;2023-04-03T00:33:29;102416.19;;;3.54;83.85
8140;BME280;4111;50.972;7.072;2023-04-03T00:35:55;102419.34;;;3.50;84.12
8140;BME280;4111;50.972;7.072;2023-04-03T00:38:22;102410.81;;;3.54;84.06
8140;BME280;4111;50.972;7.072;2023-04-03T00:40:49;102415.50;;;3.52;83.98
8140;BME280;4111;50.972;7.072;2023-04-03T00:43:24;102420.50;;;3.47;84.32
8140;BME280;4111;50.972;7.072;2023-04-03T00:45:54;102415.66;;;3.51;84.42
8140;BME280;4111;50.972;7.072;2023-04-03T00:48:31;102410.59;;;3.48;84.35
8140;BME280;4111;50.972;7.072;2023-04-03T00:50:59;102415.44;;;3.44;84.17
8140;BME280;4111;50.972;7.072;2023-04-03T00:53:34;102410.97;;;3.53;84.26
8140;BME280;4111;50.972;7.072;2023-04-03T00:56:04;102401.88;;;3.46;84.14
8140;BME280;4111;50.972;7.072;2023-04-03T00:58:42;102409.59;;;3.49;84.12
8140;BME280;4111;50.972;7.072;2023-04-03T01:01:13;102403.13;;;3.60;84.17
8140;BME280;4111;50.972;7.072;2023-04-03T01:03:42;102405.00;;;3.67;84.04
8140;BME280;4111;50.972;7.072;2023-04-03T01:06:08;102408.94;;;3.55;83.54
8140;BME280;4111;50.972;7.072;2023-04-03T01:08:35;102407.97;;;3.56;84.25
8140;BME280;4111;50.972;7.072;2023-04-03T01:11:01;102406.28;;;3.55;83.39
8140;BME280;4111;50.972;7.072;2023-04-03T01:13:30;102413.59;;;3.45;84.07
8140;BME280;4111;50.972;7.072;2023-04-03T01:16:03;102404.13;;;3.32;83.78
8140;BME280;4111;50.972;7.072;2023-04-03T01:18:30;102402.56;;;3.48;84.11
8140;BME280;4111;50.972;7.072;2023-04-03T01:26:52;102401.28;;;3.60;83.53
8140;BME280;4111;50.972;7.072;2023-04-03T01:29:19;102402.94;;;3.61;83.03
8140;BME280;4111;50.972;7.072;2023-04-03T01:31:52;102401.63;;;3.65;83.35
8140;BME280;4111;50.972;7.072;2023-04-03T01:34:19;102401.28;;;3.60;82.99
8140;BME280;4111;50.972;7.072;2023-04-03T01:36:45;102402.75;;;3.54;82.86
8140;BME280;4111;50.972;7.072;2023-04-03T01:39:12;102403.53;;;3.47;83.14
8140;BME280;4111;50.972;7.072;2023-04-03T01:41:38;102404.47;;;3.37;83.02
8140;BME280;4111;50.972;7.072;2023-04-03T01:44:05;102403.91;;;3.52;83.39
8140;BME280;4111;50.972;7.072;2023-04-03T01:46:31;102407.63;;;3.59;82.84
8140;BME280;4111;50.972;7.072;2023-04-03T01:48:58;102410.59;;;3.48;83.03
8140;BME280;4111;50.972;7.072;2023-04-03T01:51:24;102412.63;;;3.46;82.92
8140;BME280;4111;50.972;7.072;2023-04-03T01:53:51;102413.22;;;3.40;83.10
8140;BME280;4111;50.972;7.072;2023-04-03T01:56:17;102403.66;;;3.37;82.80
8140;BME280;4111;50.972;7.072;2023-04-03T01:58:44;102405.34;;;3.38;83.33
8140;BME280;4111;50.972;7.072;2023-04-03T02:01:10;102405.50;;;3.36;83.04
8140;BME280;4111;50.972;7.072;2023-04-03T02:03:36;102402.81;;;3.36;83.16
8140;BME280;4111;50.972;7.072;2023-04-03T02:06:03;102400.59;;;3.32;83.05
8140;BME280;4111;50.972;7.072;2023-04-03T02:08:29;102401.78;;;3.37;82.81
8140;BME280;4111;50.972;7.072;2023-04-03T02:10:56;102405.13;;;3.31;82.94
8140;BME280;4111;50.972;7.072;2023-04-03T02:13:22;102401.75;;;3.29;83.15
8140;BME280;4111;50.972;7.072;2023-04-03T02:15:49;102400.75;;;3.30;82.92
8140;BME280;4111;50.972;7.072;2023-04-03T02:18:16;102400.53;;;3.24;83.13
8140;BME280;4111;50.972;7.072;2023-04-03T02:20:42;102409.53;;;3.14;83.43
8140;BME280;4111;50.972;7.072;2023-04-03T02:23:09;102402.16;;;3.16;83.40
8140;BME280;4111;50.972;7.072;2023-04-03T02:25:35;102407.31;;;3.10;83.28
8140;BME280;4111;50.972;7.072;2023-04-03T02:28:04;102407.94;;;3.04;83.48
8140;BME280;4111;50.972;7.072;2023-04-03T02:30:31;102401.19;;;3.00;84.03
8140;BME280;4111;50.972;7.072;2023-04-03T02:32:57;102406.88;;;2.96;84.17
8140;BME280;4111;50.972;7.072;2023-04-03T02:35:23;102410.94;;;3.01;83.98
8140;BME280;4111;50.972;7.072;2023-04-03T02:37:50;102415.56;;;2.90;84.10
8140;BME280;4111;50.972;7.072;2023-04-03T02:40:17;102414.53;;;2.91;84.60
8140;BME280;4111;50.972;7.072;2023-04-03T02:42:43;102413.78;;;2.81;84.66
8140;BME280;4111;50.972;7.072;2023-04-03T02:45:10;102413.94;;;2.80;85.02
8140;BME280;4111;50.972;7.072;2023-04-03T02:47:36;102414.84;;;2.52;85.25
8140;BME280;4111;50.972;7.072;2023-04-03T02:50:03;102422.28;;;2.58;85.86
8140;BME280;4111;50.972;7.072;2023-04-03T02:52:29;102417.31;;;2.64;85.51
8140;BME280;4111;50.972;7.072;2023-04-03T02:54:56;102423.16;;;2.77;85.54
8140;BME280;4111;50.972;7.072;2023-04-03T02:57:22;102421.38;;;2.68;85.50
8140;BME280;4111;50.972;7.072;2023-04-03T02:59:49;102422.97;;;2.61;85.52
8140;BME280;4111;50.972;7.072;2023-04-03T03:02:15;102423.69;;;2.63;85.56
8140;BME280;4111;50.972;7.072;2023-04-03T03:04:41;102428.88;;;2.64;85.74
8140;BME280;4111;50.972;7.072;2023-04-03T03:07:09;102428.66;;;2.57;85.75
8140;BME280;4111;50.972;7.072;2023-04-03T03:09:35;102423.50;;;2.46;85.90
8140;BME280;4111;50.972;7.072;2023-04-03T03:12:02;102431.94;;;2.51;85.82
8140;BME280;4111;50.972;7.072;2023-04-03T03:14:28;102424.66;;;2.62;85.48
8140;BME280;4111;50.972;7.072;2023-04-03T03:16:55;102417.72;;;2.69;85.36
8140;BME280;4111;50.972;7.072;2023-04-03T03:19:21;102427.44;;;2.70;85.16
8140;BME280;4111;50.972;7.072;2023-04-03T03:21:48;102427.06;;;2.65;85.14
8140;BME280;4111;50.972;7.072;2023-04-03T03:24:14;102422.81;;;2.62;84.99
8140;BME280;4111;50.972;7.072;2023-04-03T03:26:42;102429.88;;;2.63;84.77
8140;BME280;4111;50.972;7.072;2023-04-03T03:29:08;102424.66;;;2.62;84.83
8140;BME280;4111;50.972;7.072;2023-04-03T03:31:35;102427.81;;;2.57;84.93
8140;BME280;4111;50.972;7.072;2023-04-03T03:34:02;102420.69;;;2.66;84.67
8140;BME280;4111;50.972;7.072;2023-04-03T03:36:28;102421.78;;;2.73;84.59
8140;BME280;4111;50.972;7.072;2023-04-03T03:38:54;102419.09;;;2.73;84.39
8140;BME280;4111;50.972;7.072;2023-04-03T03:41:21;102423.97;;;2.77;83.94
8140;BME280;4111;50.972;7.072;2023-04-03T03:43:47;102433.56;;;2.80;83.89
8140;BME280;4111;50.972;7.072;2023-04-03T03:46:14;102421.16;;;2.79;83.76
8140;BME280;4111;50.972;7.072;2023-04-03T03:48:40;102424.88;;;2.86;83.09
8140;BME280;4111;50.972;7.072;2023-04-03T03:51:07;102418.06;;;2.92;83.14
8140;BME280;4111;50.972;7.072;2023-04-03T03:53:33;102418.66;;;3.04;83.07
8140;BME280;4111;50.972;7.072;2023-04-03T03:56:00;102416.53;;;2.89;82.26
8140;BME280;4111;50.972;7.072;2023-04-03T03:58:26;102421.91;;;2.89;82.13
8140;BME280;4111;50.972;7.072;2023-04-03T04:00:53;102420.19;;;2.88;82.44
8140;BME280;4111;50.972;7.072;2023-04-03T04:03:19;102422.53;;;2.83;82.44
8140;BME280;4111;50.972;7.072;2023-04-03T04:05:45;102425.75;;;2.87;82.19
8140;BME280;4111;50.972;7.072;2023-04-03T04:08:12;102413.78;;;2.81;82.31
8140;BME280;4111;50.972;7.072;2023-04-03T04:10:38;102427.19;;;2.81;81.81
8140;BME280;4111;50.972;7.072;2023-04-03T04:13:05;102416.09;;;2.76;81.85
8140;BME280;4111;50.972;7.072;2023-04-03T04:15:31;102426.66;;;2.77;81.88
8140;BME280;4111;50.972;7.072;2023-04-03T04:17:58;102426.66;;;2.95;81.97
8140;BME280;4111;50.972;7.072;2023-04-03T04:20:24;102424.66;;;2.97;81.97
8140;BME280;4111;50.972;7.072;2023-04-03T04:22:51;102442.66;;;3.05;81.87
8140;BME280;4111;50.972;7.072;2023-04-03T04:25:17;102437.44;;;3.04;81.62
8140;BME280;4111;50.972;7.072;2023-04-03T04:27:44;102443.28;;;2.99;81.35
8140;BME280;4111;50.972;7.072;2023-04-03T04:30:10;102442.75;;;2.95;81.20
8140;BME280;4111;50.972;7.072;2023-04-03T04:32:37;102431.41;;;3.02;81.34
8140;BME280;4111;50.972;7.072;2023-04-03T04:35:04;102436.63;;;2.85;80.99
8140;BME280;4111;50.972;7.072;2023-04-03T04:37:31;102435.63;;;2.86;81.09
8140;BME280;4111;50.972;7.072;2023-04-03T04:39:57;102445.38;;;2.87;81.31
8140;BME280;4111;50.972;7.072;2023-04-03T04:42:24;102443.44;;;2.80;81.28
8140;BME280;4111;50.972;7.072;2023-04-03T04:44:50;102449.03;;;2.86;81.33
8140;BME280;4111;50.972;7.072;2023-04-03T04:47:17;102442.00;;;2.85;80.91
8140;BME280;4111;50.972;7.072;2023-04-03T04:49:43;102449.66;;;2.80;80.82
8140;BME280;4111;50.972;7.072;2023-04-03T04:52:10;102457.56;;;2.82;80.71
8140;BME280;4111;50.972;7.072;2023-04-03T04:54:36;102461.00;;;2.74;80.58
8140;BME280;4111;50.972;7.072;2023-04-03T04:57:03;102465.66;;;2.72;81.21
8140;BME280;4111;50.972;7.072;2023-04-03T04:59:29;102465.31;;;2.67;80.96
8140;BME280;4111;50.972;7.072;2023-04-03T05:01:55;102467.88;;;2.58;81.21
8140;BME280;4111;50.972;7.072;2023-04-03T05:04:22;102467.59;;;2.62;80.91
8140;BME280;4111;50.972;7.072;2023-04-03T05:06:49;102474.72;;;2.71;81.65
8140;BME280;4111;50.972;7.072;2023-04-03T05:09:15;102469.03;;;2.74;81.45
8140;BME280;4111;50.972;7.072;2023-04-03T05:11:42;102462.97;;;2.72;81.32
8140;BME280;4111;50.972;7.072;2023-04-03T05:14:09;102475.41;;;2.73;81.07
8140;BME280;4111;50.972;7.072;2023-04-03T05:16:35;102480.69;;;2.65;81.19
8140;BME280;4111;50.972;7.072;2023-04-03T05:19:02;102487.75;;;2.66;80.97
8140;BME280;4111;50.972;7.072;2023-04-03T05:21:30;102484.38;;;2.64;81.27
8140;BME280;4111;50.972;7.072;2023-04-03T05:23:59;102486.75;;;2.67;81.45
8140;BME280;4111;50.972;7.072;2023-04-03T05:26:30;102480.94;;;2.71;81.10
8140;BME280;4111;50.972;7.072;2023-04-03T05:28:57;102481.06;;;2.70;81.05
8140;BME280;4111;50.972;7.072;2023-04-03T05:31:23;102491.66;;;2.71;80.96
8140;BME280;4111;50.972;7.072;2023-04-03T05:33:50;102491.66;;;2.71;81.36
8140;BME280;4111;50.972;7.072;2023-04-03T05:36:16;102496.69;;;2.74;80.95
8140;BME280;4111;50.972;7.072;2023-04-03T05:38:43;102488.91;;;2.81;81.19
8140;BME280;4111;50.972;7.072;2023-04-03T05:41:11;102491.03;;;2.77;81.21
8140;BME280;4111;50.972;7.072;2023-04-03T05:43:37;102497.94;;;2.80;80.84
8140;BME280;4111;50.972;7.072;2023-04-03T05:46:12;102501.84;;;2.86;81.06
8140;BME280;4111;50.972;7.072;2023-04-03T05:48:39;102506.16;;;2.78;80.49
8140;BME280;4111;50.972;7.072;2023-04-03T05:51:07;102503.00;;;2.83;80.64
8140;BME280;4111;50.972;7.072;2023-04-03T05:53:36;102510.06;;;2.84;80.45
8140;BME280;4111;50.972;7.072;2023-04-03T05:56:05;102513.75;;;2.83;80.26
8140;BME280;4111;50.972;7.072;2023-04-03T05:58:32;102513.81;;;2.91;80.25
8140;BME280;4111;50.972;7.072;2023-04-03T06:00:58;102519.59;;;2.96;80.07
8140;BME280;4111;50.972;7.072;2023-04-03T06:03:24;102513.28;;;3.06;80.06
8140;BME280;4111;50.972;7.072;2023-04-03T06:05:52;102518.03;;;3.12;80.14
8140;BME280;4111;50.972;7.072;2023-04-03T06:08:18;102519.03;;;3.29;80.11
8140;BME280;4111;50.972;7.072;2023-04-03T06:10:45;102513.66;;;3.29;79.45
8140;BME280;4111;50.972;7.072;2023-04-03T06:13:12;102523.03;;;3.43;79.57
8140;BME280;4111;50.972;7.072;2023-04-03T06:15:39;102521.50;;;3.40;78.85
8140;BME280;4111;50.972;7.072;2023-04-03T06:18:06;102521.91;;;3.53;78.83
8140;BME280;4111;50.972;7.072;2023-04-03T06:20:33;102524.16;;;3.58;78.38
8140;BME280;4111;50.972;7.072;2023-04-03T06:22:59;102533.53;;;3.54;77.85
8140;BME280;4111;50.972;7.072;2023-04-03T06:25:26;102524.91;;;3.68;78.13
8140;BME280;4111;50.972;7.072;2023-04-03T06:27:52;102531.50;;;3.74;77.80
8140;BME280;4111;50.972;7.072;2023-04-03T06:30:21;102536.44;;;3.87;77.79
8140;BME280;4111;50.972;7.072;2023-04-03T06:32:48;102526.84;;;4.10;77.83
8140;BME280;4111;50.972;7.072;2023-04-03T06:35:14;102526.47;;;4.05;76.66
8140;BME280;4111;50.972;7.072;2023-04-03T06:37:41;102519.22;;;4.32;76.91
8140;BME280;4111;50.972;7.072;2023-04-03T06:40:18;102521.59;;;4.35;75.66
8140;BME280;4111;50.972;7.072;2023-04-03T06:42:46;102531.84;;;4.40;75.27
8140;BME280;4111;50.972;7.072;2023-04-03T06:45:12;102527.53;;;4.55;74.64
8140;BME280;4111;50.972;7.072;2023-04-03T06:47:39;102529.41;;;4.54;74.20
8140;BME280;4111;50.972;7.072;2023-04-03T06:50:06;102525.56;;;4.65;73.89
8140;BME280;4111;50.972;7.072;2023-04-03T06:52:33;102535.19;;;4.76;73.57
8140;BME280;4111;50.972;7.072;2023-04-03T06:54:59;102529.69;;;5.10;74.89
8140;BME280;4111;50.972;7.072;2023-04-03T06:57:26;102527.47;;;4.97;72.79
8140;BME280;4111;50.972;7.072;2023-04-03T06:59:53;102534.56;;;5.07;72.56
8140;BME280;4111;50.972;7.072;2023-04-03T07:02:19;102530.91;;;5.24;71.82
8140;BME280;4111;50.972;7.072;2023-04-03T07:04:47;102535.25;;;5.17;71.35
8140;BME280;4111;50.972;7.072;2023-04-03T07:07:13;102537.78;;;5.10;70.32
8140;BME280;4111;50.972;7.072;2023-04-03T07:09:40;102530.75;;;5.26;71.30
8140;BME280;4111;50.972;7.072;2023-04-03T07:12:10;102529.56;;;5.28;69.89
8140;BME280;4111;50.972;7.072;2023-04-03T07:14:37;102537.97;;;5.25;69.76
8140;BME280;4111;50.972;7.072;2023-04-03T07:17:03;102542.19;;;5.44;69.92
8140;BME280;4111;50.972;7.072;2023-04-03T07:19:29;102542.03;;;5.46;68.99
8140;BME280;4111;50.972;7.072;2023-04-03T07:21:56;102550.78;;;5.56;69.05
8140;BME280;4111;50.972;7.072;2023-04-03T07:24:23;102545.72;;;5.61;68.63
8140;BME280;4111;50.972;7.072;2023-04-03T07:26:50;102546.03;;;5.74;68.67
8140;BME280;4111;50.972;7.072;2023-04-03T07:29:17;102551.59;;;5.98;68.88
8140;BME280;4111;50.972;7.072;2023-04-03T07:31:43;102552.13;;;5.85;67.82
8140;BME280;4111;50.972;7.072;2023-04-03T07:34:11;102557.50;;;5.93;67.48
8140;BME280;4111;50.972;7.072;2023-04-03T07:36:37;102555.97;;;5.90;66.66
8140;BME280;4111;50.972;7.072;2023-04-03T07:39:04;102558.84;;;5.89;66.75
8140;BME280;4111;50.972;7.072;2023-04-03T07:41:30;102556.47;;;5.94;66.30
8140;BME280;4111;50.972;7.072;2023-04-03T07:43:57;102553.06;;;6.25;66.68
8140;BME280;4111;50.972;7.072;2023-04-03T07:46:23;102551.22;;;6.17;65.70
8140;BME280;4111;50.972;7.072;2023-04-03T07:48:50;102557.38;;;6.50;66.10
8140;BME280;4111;50.972;7.072;2023-04-03T07:51:16;102549.34;;;6.65;65.79
8140;BME280;4111;50.972;7.072;2023-04-03T07:53:43;102560.03;;;6.59;64.92
8140;BME280;4111;50.972;7.072;2023-04-03T07:56:09;102559.72;;;6.45;65.31
8140;BME280;4111;50.972;7.072;2023-04-03T07:58:36;102563.19;;;6.70;64.64
8140;BME280;4111;50.972;7.072;2023-04-03T08:01:03;102555.19;;;6.85;64.60
8140;BME280;4111;50.972;7.072;2023-04-03T08:03:30;102551.84;;;6.75;63.53
8140;BME280;4111;50.972;7.072;2023-04-03T08:06:02;102560.59;;;7.08;64.58
8140;BME280;4111;50.972;7.072;2023-04-03T08:08:30;102554.19;;;7.09;63.57
8140;BME280;4111;50.972;7.072;2023-04-03T08:10:58;102554.59;;;6.98;63.04
8140;BME280;4111;50.972;7.072;2023-04-03T08:13:25;102552.19;;;7.26;63.51
8140;BME280;4111;50.972;7.072;2023-04-03T08:15:52;102558.81;;;7.47;62.62
8140;BME280;4111;50.972;7.072;2023-04-03T08:18:18;102562.13;;;7.72;62.20
8140;BME280;4111;50.972;7.072;2023-04-03T08:20:47;102552.50;;;7.92;61.84
8140;BME280;4111;50.972;7.072;2023-04-03T08:23:14;102547.56;;;8.26;61.54
8140;BME280;4111;50.972;7.072;2023-04-03T08:25:44;102553.38;;;8.52;61.23
8140;BME280;4111;50.972;7.072;2023-04-03T08:28:11;102555.97;;;8.61;60.24
8140;BME280;4111;50.972;7.072;2023-04-03T08:30:40;102562.47;;;7.92;58.53
8140;BME280;4111;50.972;7.072;2023-04-03T08:33:07;102564.31;;;7.77;57.84
8140;BME280;4111;50.972;7.072;2023-04-03T08:35:39;102568.25;;;7.51;57.42
8140;BME280;4111;50.972;7.072;2023-04-03T08:38:07;102574.13;;;7.92;57.71
8140;BME280;4111;50.972;7.072;2023-04-03T08:40:33;102565.69;;;8.40;57.86
8140;BME280;4111;50.972;7.072;2023-04-03T08:45:48;102568.75;;;8.22;55.18
8140;BME280;4111;50.972;7.072;2023-04-03T08:48:33;102568.09;;;8.65;54.99
8140;BME280;4111;50.972;7.072;2023-04-03T08:51:04;102571.44;;;8.82;53.62
8140;BME280;4111;50.972;7.072;2023-04-03T08:53:40;102572.63;;;9.30;53.57
8140;BME280;4111;50.972;7.072;2023-04-03T08:56:12;102564.59;;;9.44;52.44
8140;BME280;4111;50.972;7.072;2023-04-03T08:58:47;102562.31;;;9.69;52.57
8140;BME280;4111;50.972;7.072;2023-04-03T09:01:33;102563.03;;;9.78;51.26
8140;BME280;4111;50.972;7.072;2023-04-03T09:04:01;102560.06;;;9.72;50.30
8140;BME280;4111;50.972;7.072;2023-04-03T09:06:31;102566.41;;;9.80;49.20
8140;BME280;4111;50.972;7.072;2023-04-03T09:12:06;102562.78;;;9.51;46.88
8140;BME280;4111;50.972;7.072;2023-04-03T09:14:39;102564.91;;;9.56;47.95
8140;BME280;4111;50.972;7.072;2023-04-03T09:17:15;102564.59;;;9.65;48.15
8140;BME280;4111;50.972;7.072;2023-04-03T09:20:30;102577.47;;;9.35;47.33
8140;BME280;4111;50.972;7.072;2023-04-03T09:22:41;102571.66;;;9.38;47.41
8140;BME280;4111;50.972;7.072;2023-04-03T09:25:27;102573.75;;;9.86;47.67
8140;BME280;4111;50.972;7.072;2023-04-03T09:28:00;102573.00;;;9.99;47.31
8140;BME280;4111;50.972;7.072;2023-04-03T09:30:28;102572.53;;;9.95;47.02
8140;BME280;4111;50.972;7.072;2023-04-03T09:32:56;102573.69;;;10.07;46.27
8140;BME280;4111;50.972;7.072;2023-04-03T09:35:34;102569.06;;;10.01;45.65
8140;BME280;4111;50.972;7.072;2023-04-03T09:40:44;102557.19;;;10.09;45.48
8140;BME280;4111;50.972;7.072;2023-04-03T09:43:37;102569.34;;;9.85;45.66
8140;BME280;4111;50.972;7.072;2023-04-03T09:49:00;102551.19;;;10.13;46.44
8140;BME280;4111;50.972;7.072;2023-04-03T09:51:35;102556.44;;;10.22;45.89
8140;BME280;4111;50.972;7.072;2023-04-03T09:54:37;102555.19;;;9.89;45.53
8140;BME280;4111;50.972;7.072;2023-04-03T09:57:10;102564.31;;;9.82;45.27
8140;BME280;4111;50.972;7.072;2023-04-03T09:59:43;102548.69;;;9.34;44.84
8140;BME280;4111;50.972;7.072;2023-04-03T10:02:33;102548.09;;;9.88;45.73
8140;BME280;4111;50.972;7.072;2023-04-03T10:05:01;102547.16;;;10.38;45.53
8140;BME280;4111;50.972;7.072;2023-04-03T10:07:34;102546.00;;;10.54;44.38
8140;BME280;4111;50.972;7.072;2023-04-03T10:10:16;102545.81;;;10.55;43.51
8140;BME280;4111;50.972;7.072;2023-04-03T10:13:05;102537.13;;;10.38;44.21
8140;BME280;4111;50.972;7.072;2023-04-03T10:15:42;102542.75;;;10.02;42.80
8140;BME280;4111;50.972;7.072;2023-04-03T10:18:44;102539.69;;;9.83;42.01
8140;BME280;4111;50.972;7.072;2023-04-03T10:21:22;102537.09;;;9.47;40.88
8140;BME280;4111;50.972;7.072;2023-04-03T10:26:45;102536.19;;;9.18;40.38
8140;BME280;4111;50.972;7.072;2023-04-03T10:29:36;102527.31;;;9.46;41.29
8140;BME280;4111;50.972;7.072;2023-04-03T10:32:44;102527.47;;;9.94;41.23
8140;BME280;4111;50.972;7.072;2023-04-03T10:38:33;102523.16;;;10.06;40.66
8140;BME280;4111;50.972;7.072;2023-04-03T10:41:15;102528.41;;;9.80;38.77
8140;BME280;4111;50.972;7.072;2023-04-03T10:46:49;102527.13;;;10.10;39.78
8140;BME280;4111;50.972;7.072;2023-04-03T10:52:40;102518.75;;;10.34;38.95
8140;BME280;4111;50.972;7.072;2023-04-03T10:57:49;102520.91;;;10.51;39.12
8140;BME280;4111;50.972;7.072;2023-04-03T11:00:20;102505.50;;;10.59;39.18
8140;BME280;4111;50.972;7.072;2023-04-03T11:03:03;102498.63;;;10.76;39.35
8140;BME280;4111;50.972;7.072;2023-04-03T11:05:47;102506.13;;;10.61;38.83
8140;BME280;4111;50.972;7.072;2023-04-03T11:08:49;102510.06;;;10.58;38.19
8140;BME280;4111;50.972;7.072;2023-04-03T11:11:21;102499.38;;;10.50;38.38
8140;BME280;4111;50.972;7.072;2023-04-03T11:14:00;102507.88;;;10.34;38.06
8140;BME280;4111;50.972;7.072;2023-04-03T11:16:30;102508.56;;;10.07;38.38
8140;BME280;4111;50.972;7.072;2023-04-03T11:19:22;102499.63;;;10.20;39.32
8140;BME280;4111;50.972;7.072;2023-04-03T11:21:56;102495.56;;;10.31;39.00
8140;BME280;4111;50.972;7.072;2023-04-03T11:24:29;102483.97;;;10.16;39.14
8140;BME280;4111;50.972;7.072;2023-04-03T11:27:00;102491.69;;;10.19;39.40
8140;BME280;4111;50.972;7.072;2023-04-03T11:29:34;102484.91;;;10.36;38.92
8140;BME280;4111;50.972;7.072;2023-04-03T11:32:26;102478.84;;;10.34;38.90
8140;BME280;4111;50.972;7.072;2023-04-03T11:34:58;102477.06;;;10.55;39.30
8140;BME280;4111;50.972;7.072;2023-04-03T11:37:33;102469.75;;;10.62;39.33
8140;BME280;4111;50.972;7.072;2023-04-03T11:40:21;102473.56;;;10.26;37.77
8140;BME280;4111;50.972;7.072;2023-04-03T11:42:52;102470.13;;;10.10;37.64
8140;BME280;4111;50.972;7.072;2023-04-03T11:47:50;102465.31;;;10.47;37.61
8140;BME280;4111;50.972;7.072;2023-04-03T11:58:31;102465.81;;;10.71;36.48
8140;BME280;4111;50.972;7.072;2023-04-03T12:21:16;102428.44;;;11.26;37.60
8140;BME280;4111;50.972;7.072;2023-04-03T12:26:38;102429.69;;;11.57;36.71
8140;BME280;4111;50.972;7.072;2023-04-03T12:29:18;102421.53;;;11.30;35.28
8140;BME280;4111;50.972;7.072;2023-04-03T12:46:19;102412.25;;;11.85;33.47
8140;BME280;4111;50.972;7.072;2023-04-03T12:51:23;102405.75;;;11.93;33.04
8140;BME280;4111;50.972;7.072;2023-04-03T12:54:00;102417.63;;;12.12;32.99
8140;BME280;4111;50.972;7.072;2023-04-03T12:56:30;102406.19;;;11.83;32.21
8140;BME280;4111;50.972;7.072;2023-04-03T12:59:16;102410.72;;;12.02;32.80
8140;BME280;4111;50.972;7.072;2023-04-03T13:01:44;102403.03;;;11.86;33.05
8140;BME280;4111;50.972;7.072;2023-04-03T13:04:19;102395.06;;;11.84;32.90
8140;BME280;4111;50.972;7.072;2023-04-03T13:06:45;102390.94;;;11.68;32.28
8140;BME280;4111;50.972;7.072;2023-04-03T13:11:53;102399.63;;;12.10;32.95
8140;BME280;4111;50.972;7.072;2023-04-03T13:14:24;102376.13;;;12.16;32.67
8140;BME280;4111;50.972;7.072;2023-04-03T13:17:00;102392.06;;;12.51;33.10
8140;BME280;4111;50.972;7.072;2023-04-03T13:19:29;102383.94;;;12.44;32.27
8140;BME280;4111;50.972;7.072;2023-04-03T13:22:01;102376.66;;;12.38;31.99
8140;BME280;4111;50.972;7.072;2023-04-03T13:24:30;102378.03;;;12.79;33.06
8140;BME280;4111;50.972;7.072;2023-04-03T13:26:58;102374.28;;;13.05;32.56
8140;BME280;4111;50.972;7.072;2023-04-03T13:29:29;102372.63;;;13.23;32.77
8140;BME280;4111;50.972;7.072;2023-04-03T13:31:59;102369.66;;;13.06;32.16
8140;BME280;4111;50.972;7.072;2023-04-03T13:34:29;102362.41;;;13.18;32.64
8140;BME280;4111;50.972;7.072;2023-04-03T13:37:02;102371.75;;;13.73;32.23
8140;BME280;4111;50.972;7.072;2023-04-03T13:39:35;102366.88;;;13.93;31.34
8140;BME280;4111;50.972;7.072;2023-04-03T13:42:23;102365.50;;;13.84;30.95
8140;BME280;4111;50.972;7.072;2023-04-03T13:47:52;102352.22;;;15.49;31.16
8140;BME280;4111;50.972;7.072;2023-04-03T13:50:23;102343.41;;;15.59;30.49
8140;BME280;4111;50.972;7.072;2023-04-03T13:53:01;102329.34;;;15.79;30.75
8140;BME280;4111;50.972;7.072;2023-04-03T13:55:32;102335.22;;;15.47;30.58
8140;BME280;4111;50.972;7.072;2023-04-03T13:58:21;102337.72;;;16.30;30.35
8140;BME280;4111;50.972;7.072;2023-04-03T14:01:00;102333.69;;;16.49;30.04
8140;BME280;4111;50.972;7.072;2023-04-03T14:03:33;102329.78;;;16.62;29.50
8140;BME280;4111;50.972;7.072;2023-04-03T14:06:00;102325.66;;;15.73;29.79
8140;BME280;4111;50.972;7.072;2023-04-03T14:08:27;102319.50;;;15.54;30.30
8140;BME280;4111;50.972;7.072;2023-04-03T14:11:29;102321.03;;;16.02;30.90
8140;BME280;4111;50.972;7.072;2023-04-03T14:14:02;102329.16;;;15.97;30.45
8140;BME280;4111;50.972;7.072;2023-04-03T14:16:37;102310.78;;;16.10;30.77
8140;BME280;4111;50.972;7.072;2023-04-03T14:19:04;102316.81;;;16.57;30.56
8140;BME280;4111;50.972;7.072;2023-04-03T14:21:30;102310.94;;;15.39;29.87
8140;BME280;4111;50.972;7.072;2023-04-03T14:23:56;102315.59;;;15.50;30.04
8140;BME280;4111;50.972;7.072;2023-04-03T14:26:23;102320.44;;;15.48;29.96
8140;BME280;4111;50.972;7.072;2023-04-03T14:28:53;102317.25;;;15.39;30.01
8140;BME280;4111;50.972;7.072;2023-04-03T14:31:21;102307.84;;;16.62;30.17
8140;BME280;4111;50.972;7.072;2023-04-03T14:33:48;102305.25;;;17.06;29.81
8140;BME280;4111;50.972;7.072;2023-04-03T14:36:20;102306.78;;;16.97;28.81
8140;BME280;4111;50.972;7.072;2023-04-03T14:38:48;102305.66;;;16.30;28.46
8140;BME280;4111;50.972;7.072;2023-04-03T14:41:17;102304.03;;;16.63;28.65
8140;BME280;4111;50.972;7.072;2023-04-03T14:43:45;102300.19;;;16.64;29.23
8140;BME280;4111;50.972;7.072;2023-04-03T14:46:33;102297.00;;;16.21;28.21
8140;BME280;4111;50.972;7.072;2023-04-03T14:49:24;102302.72;;;16.82;28.61
8140;BME280;4111;50.972;7.072;2023-04-03T14:51:50;102294.50;;;17.21;28.41
8140;BME280;4111;50.972;7.072;2023-04-03T14:54:21;102299.19;;;17.04;27.81
8140;BME280;4111;50.972;7.072;2023-04-03T14:56:52;102296.38;;;16.65;28.39
8140;BME280;4111;50.972;7.072;2023-04-03T14:59:18;102292.78;;;16.48;28.31
8140;BME280;4111;50.972;7.072;2023-04-03T15:01:46;102280.81;;;17.04;28.65
8140;BME280;4111;50.972;7.072;2023-04-03T15:04:14;102283.72;;;16.98;28.47